Time;durP1;ratioP1;P1;durP2;ratioP2;P2;SDS_P1;SDS_P2;PMS_P1;PMS_P2;Temp;Humidity;BMP_temperature;BMP_pressure;BME280_temperature;BME280_humidity;BME280_pressure;Samples;Min_cycle;Max_cycle;Signal;HPM_P1;HPM_P2
2023/01/29 00:00:28;;;;;;;6.18;5.68;;;;;;;1.22;70.39;100838.73;461846;114;923055;-71
2023/01/29 00:01:31;;;;;;;5.95;5.48;;;;;;;1.22;70.44;100838.73;461724;114;928813;-71
2023/01/29 00:02:35;;;;;;;5.90;5.40;;;;;;;1.23;70.53;100832.38;462718;112;930641;-70
2023/01/29 00:03:38;;;;;;;6.36;5.80;;;;;;;1.24;70.52;100840.30;461981;114;922710;-71
2023/01/29 00:04:41;;;;;;;5.66;5.23;;;;;;;1.27;70.55;100835.63;461306;112;922450;-70
2023/01/29 00:05:44;;;;;;;5.62;5.12;;;;;;;1.28;70.54;100831.92;461475;114;922567;-70
2023/01/29 00:06:50;;;;;;;5.58;5.13;;;;;;;1.29;70.64;100837.16;452456;117;922563;-71
2023/01/29 00:07:57;;;;;;;5.49;5.03;;;;;;;1.30;70.48;100838.01;451670;116;922983;-71
2023/01/29 00:08:57;;;;;;;5.99;5.46;;;;;;;1.29;70.49;100829.10;458967;114;922518;-71
2023/01/29 00:10:00;;;;;;;5.37;4.97;;;;;;;1.29;70.36;100836.31;464854;112;922489;-69
2023/01/29 00:11:05;;;;;;;5.54;5.12;;;;;;;1.29;70.44;100839.00;464279;113;922840;-70
2023/01/29 00:12:09;;;;;;;5.67;5.10;;;;;;;1.29;70.44;100839.00;461063;114;922623;-71
2023/01/29 00:13:12;;;;;;;5.62;5.16;;;;;;;1.29;70.45;100830.94;466624;113;922832;-71
2023/01/29 00:14:15;;;;;;;6.85;6.17;;;;;;;1.28;70.47;100832.77;457514;113;922494;-70
2023/01/29 00:15:19;;;;;;;5.97;5.47;;;;;;;1.27;70.47;100836.45;458172;112;922649;-71
2023/01/29 00:16:22;;;;;;;5.71;5.21;;;;;;;1.27;70.54;100835.63;459677;114;922735;-70
2023/01/29 00:17:27;;;;;;;6.00;5.52;;;;;;;1.27;70.51;100838.32;462188;113;922640;-71
2023/01/29 00:18:30;;;;;;;6.16;5.65;;;;;;;1.25;70.50;100835.77;462599;114;922589;-71
2023/01/29 00:19:35;;;;;;;6.30;5.39;;;;;;;1.25;70.51;100831.25;461362;114;922666;-70
2023/01/29 00:20:38;;;;;;;6.38;5.81;;;;;;;1.26;70.67;100840.16;459440;113;930483;-71
2023/01/29 00:21:41;;;;;;;5.82;5.37;;;;;;;1.28;70.73;100839.98;459285;114;930976;-71
2023/01/29 00:22:44;;;;;;;5.72;5.19;;;;;;;1.28;70.73;100830.09;460836;114;922553;-71
2023/01/29 00:23:48;;;;;;;6.08;5.58;;;;;;;1.29;70.69;100833.63;462263;113;922669;-71
2023/01/29 00:24:51;;;;;;;6.05;5.55;;;;;;;1.29;70.61;100826.42;462974;114;922455;-72
2023/01/29 00:25:56;;;;;;;5.89;5.39;;;;;;;1.30;70.60;100836.17;465536;114;922499;-71
2023/01/29 00:26:59;;;;;;;6.14;5.58;;;;;;;1.30;70.71;100830.80;460851;113;922510;-72
2023/01/29 00:28:02;;;;;;;6.08;5.59;;;;;;;1.30;70.68;100819.20;463458;113;922858;-72
2023/01/29 00:29:05;;;;;;;7.23;6.63;;;;;;;1.28;70.42;100831.92;467980;113;922461;-71
2023/01/29 00:30:15;;;;;;;7.04;6.36;;;;;;;1.23;70.42;100827.86;463897;112;922477;-71
2023/01/29 00:31:21;;;;;;;6.33;5.71;;;;;;;1.20;70.33;100827.32;465396;114;922662;-70
2023/01/29 00:32:24;;;;;;;5.92;5.42;;;;;;;1.15;70.48;100826.92;465350;114;922425;-72
2023/01/29 00:33:28;;;;;;;6.52;5.92;;;;;;;1.11;70.51;100826.35;460661;112;922352;-71
2023/01/29 00:34:31;;;;;;;6.14;5.61;;;;;;;1.09;70.60;100825.67;456780;112;923186;-71
2023/01/29 00:35:34;;;;;;;5.77;5.31;;;;;;;1.10;70.63;100830.02;464704;114;930447;-71
2023/01/29 00:36:38;;;;;;;6.16;5.68;;;;;;;1.10;70.55;100823.84;463279;114;923244;-71
2023/01/29 00:37:41;;;;;;;5.68;5.18;;;;;;;1.11;70.48;100826.35;463221;114;922571;-71
2023/01/29 00:38:53;;;;;;;5.28;4.87;;;;;;;1.13;70.57;100828.89;459973;114;922987;-72
2023/01/29 00:39:53;;;;;;;5.77;5.36;;;;;;;1.13;70.51;100824.38;461255;114;922557;-71
2023/01/29 00:44:56;;;;;;;8.69;5.23;;;;;;;1.23;70.63;100824.32;447067;117;923003;-71
2023/01/29 00:45:59;;;;;;;5.52;5.11;;;;;;;1.24;70.60;100821.50;461796;114;922466;-71
2023/01/29 00:47:29;;;;;;;5.56;5.11;;;;;;;1.25;70.46;100831.25;463648;114;922888;-71
2023/01/29 00:48:12;;;;;;;5.49;5.06;;;;;;;1.27;70.51;100820.33;461546;114;922878;-71
2023/01/29 00:49:15;;;;;;;6.41;5.44;;;;;;;1.29;70.49;100818.36;458875;114;922560;-71
2023/01/29 00:50:18;;;;;;;5.36;4.96;;;;;;;1.31;70.37;100815.53;461756;114;922495;-72
2023/01/29 00:51:22;;;;;;;5.53;5.01;;;;;;;1.32;70.30;100811.86;455590;116;922502;-71
2023/01/29 00:52:25;;;;;;;5.97;5.44;;;;;;;1.34;70.36;100817.91;456931;115;930489;-72
2023/01/29 00:53:33;;;;;;;6.41;5.80;;;;;;;1.34;70.23;100807.16;460276;115;922507;-70
2023/01/29 00:54:34;;;;;;;6.17;5.57;;;;;;;1.34;70.04;100818.75;458934;112;922908;-71
2023/01/29 00:55:38;;;;;;;5.76;5.15;;;;;;;1.34;70.12;100815.22;457305;114;923077;-71
2023/01/29 00:56:41;;;;;;;6.30;5.82;;;;;;;1.34;70.08;100815.22;463656;114;922553;-71
2023/01/29 00:57:44;;;;;;;6.54;5.93;;;;;;;1.35;70.03;100811.54;456764;114;922522;-70
2023/01/29 00:58:50;;;;;;;5.99;5.49;;;;;;;1.36;69.98;100805.18;456414;113;922525;-70
2023/01/29 00:59:53;;;;;;;5.69;5.19;;;;;;;1.36;69.87;100805.18;461503;112;922546;-71
2023/01/29 01:00:56;;;;;;;5.27;4.83;;;;;;;1.35;69.80;100804.33;460402;115;922474;-70
2023/01/29 01:03:21;;;;;;;5.94;5.43;;;;;;;1.33;69.79;100805.46;455439;116;923160;-71
2023/01/29 01:04:24;;;;;;;6.58;5.99;;;;;;;1.31;69.58;100802.95;459836;114;922495;-71
2023/01/29 01:05:28;;;;;;;6.27;5.73;;;;;;;1.29;69.69;100798.70;461255;114;922545;-71
2023/01/29 01:06:35;;;;;;;6.48;5.80;;;;;;;1.27;69.62;100803.41;455460;116;922532;-71
2023/01/29 01:07:39;;;;;;;5.88;5.38;;;;;;;1.25;69.67;100803.55;455336;116;922579;-71
2023/01/29 01:10:19;;;;;;;6.14;5.66;;;;;;;1.27;69.72;100803.41;457796;114;922517;-71
2023/01/29 01:11:23;;;;;;;5.55;5.05;;;;;;;1.27;69.71;100796.16;460446;115;922479;-71
2023/01/29 01:12:27;;;;;;;6.78;6.17;;;;;;;1.28;69.72;100795.17;460344;115;922546;-73
2023/01/29 01:13:34;;;;;;;6.63;6.06;;;;;;;1.29;69.73;100798.70;461979;114;922705;-71
2023/01/29 01:14:37;;;;;;;6.31;5.73;;;;;;;1.30;69.74;100795.03;461943;114;922542;-70
2023/01/29 01:15:40;;;;;;;6.78;6.21;;;;;;;1.30;69.67;100793.19;463015;114;922637;-71
2023/01/29 01:16:45;;;;;;;6.51;5.94;;;;;;;1.32;69.60;100798.42;460765;114;922556;-70
2023/01/29 01:17:52;;;;;;;5.86;5.36;;;;;;;1.33;69.64;100794.72;460283;115;923215;-71
2023/01/29 01:18:55;;;;;;;5.62;5.19;;;;;;;1.34;69.53;100794.58;459613;114;930552;-71
2023/01/29 01:19:58;;;;;;;6.03;5.52;;;;;;;1.35;69.64;100795.42;460942;114;922689;-70
2023/01/29 01:21:01;;;;;;;6.40;5.84;;;;;;;1.36;69.59;100787.22;463804;114;922864;-71
2023/01/29 01:22:04;;;;;;;6.10;5.60;;;;;;;1.36;69.54;100787.22;463771;114;922411;-71
2023/01/29 01:23:07;;;;;;;6.40;5.80;;;;;;;1.37;69.52;100796.13;463738;114;922852;-71
2023/01/29 01:24:12;;;;;;;6.66;6.04;;;;;;;1.37;69.42;100788.08;463752;114;922470;-71
2023/01/29 01:25:16;;;;;;;7.80;5.95;;;;;;;1.37;69.40;100785.38;462859;114;922962;-70
2023/01/29 01:26:19;;;;;;;5.96;5.38;;;;;;;1.37;69.48;100783.55;443873;118;930510;-71
2023/01/29 01:27:24;;;;;;;6.22;5.74;;;;;;;1.38;69.37;100784.39;443947;119;922518;-70
2023/01/29 01:28:27;;;;;;;6.77;6.13;;;;;;;1.37;69.20;100783.55;443701;119;922699;-70
2023/01/29 01:29:31;;;;;;;5.85;5.14;;;;;;;1.36;69.26;100784.53;444152;116;922819;-70
2023/01/29 01:30:34;;;;;;;6.13;5.62;;;;;;;1.36;69.18;100781.00;455578;116;930416;-71
2023/01/29 01:31:37;;;;;;;6.38;5.78;;;;;;;1.36;69.18;100784.53;457355;116;922932;-70
2023/01/29 01:32:44;;;;;;;6.54;5.96;;;;;;;1.37;69.28;100782.70;457255;116;922873;-71
2023/01/29 01:33:53;;;;;;;6.68;5.58;;;;;;;1.37;69.10;100782.70;457150;116;922540;-71
2023/01/29 01:34:52;;;;;;;7.23;6.34;;;;;;;1.36;69.07;100781.00;453097;115;922883;-72
2023/01/29 01:35:59;;;;;;;7.06;6.29;;;;;;;1.35;69.15;100782.84;438556;121;922573;-71
2023/01/29 01:37:02;;;;;;;6.51;5.93;;;;;;;1.34;69.04;100778.45;454166;115;922834;-69
2023/01/29 01:38:05;;;;;;;6.33;5.76;;;;;;;1.33;69.11;100774.08;454509;116;922515;-70
2023/01/29 01:39:08;;;;;;;6.36;5.84;;;;;;;1.33;68.99;100789.34;454384;116;923492;-71
2023/01/29 01:40:16;;;;;;;6.41;5.86;;;;;;;1.33;69.13;100779.45;453598;115;922639;-71
2023/01/29 01:41:22;;;;;;;6.61;5.89;;;;;;;1.34;69.03;100778.45;454365;116;922609;-71
2023/01/29 01:42:31;;;;;;;6.66;6.12;;;;;;;1.34;69.15;100775.77;454317;116;923185;-70
2023/01/29 01:43:59;;;;;;;5.73;5.28;;;;;;;1.35;69.05;100782.84;454312;116;923314;-70
2023/01/29 01:45:06;;;;;;;5.97;5.43;;;;;;;1.36;69.07;100781.00;453674;116;922655;-70
2023/01/29 01:46:10;;;;;;;6.29;5.82;;;;;;;1.36;69.03;100781.00;452189;115;922985;-71
2023/01/29 01:47:14;;;;;;;6.68;6.00;;;;;;;1.36;69.06;100775.63;450832;117;922998;-70
2023/01/29 01:48:23;;;;;;;6.18;5.58;;;;;;;1.37;69.03;100778.17;450706;117;930519;-70
2023/01/29 01:49:27;;;;;;;6.14;5.57;;;;;;;1.36;69.05;100778.31;454669;115;922631;-71
2023/01/29 01:50:34;;;;;;;5.72;5.25;;;;;;;1.35;68.84;100779.30;454231;116;922618;-71
2023/01/29 01:51:41;;;;;;;6.38;5.78;;;;;;;1.33;69.01;100778.59;454569;115;922879;-71
2023/01/29 01:52:47;;;;;;;6.71;5.44;;;;;;;1.33;69.02;100784.82;460037;115;922554;-70
2023/01/29 01:54:06;;;;;;;5.99;5.49;;;;;;;1.34;68.95;100788.36;459776;115;922501;-71
2023/01/29 01:55:12;;;;;;;6.73;5.20;;;;;;;1.33;68.99;100776.77;448379;115;922634;-72
2023/01/29 01:56:19;;;;;;;6.11;5.60;;;;;;;1.32;68.87;100779.63;451293;117;922591;-71
2023/01/29 01:57:24;;;;;;;6.03;5.49;;;;;;;1.33;68.87;100781.28;451927;117;922982;-70
2023/01/29 01:58:39;;;;;;;6.41;5.83;;;;;;;1.33;68.84;100781.28;445378;119;922667;-70
2023/01/29 01:59:39;;;;;;;5.55;5.05;;;;;;;1.33;68.96;100782.13;450515;115;922943;-70
2023/01/29 02:00:43;;;;;;;5.59;5.15;;;;;;;1.32;68.94;100779.63;443492;119;922620;-71
2023/01/29 02:01:50;;;;;;;6.76;6.20;;;;;;;1.31;68.92;100775.23;444538;115;923157;-71
2023/01/29 02:10:11;;;;;;;5.96;5.50;;;;;;;1.34;69.17;100782.98;453632;115;922513;-72
2023/01/29 02:11:15;;;;;;;8.22;6.24;;;;;;;1.34;69.14;100782.98;439103;118;931103;-71
2023/01/29 02:12:19;;;;;;;6.29;5.69;;;;;;;1.34;69.14;100788.36;453585;116;922607;-71
2023/01/29 02:13:23;;;;;;;7.99;5.52;;;;;;;1.34;69.19;100780.30;454342;116;922576;-71
2023/01/29 02:14:26;;;;;;;5.90;5.40;;;;;;;1.34;69.11;100789.20;453524;114;930575;-71
2023/01/29 02:15:30;;;;;;;5.69;5.22;;;;;;;1.34;69.18;100788.36;453317;114;922592;-71
2023/01/29 02:16:36;;;;;;;6.76;5.67;;;;;;;1.33;69.14;100775.91;453756;116;923043;-71
2023/01/29 02:17:47;;;;;;;6.08;5.51;;;;;;;1.33;69.16;100783.97;451354;117;922518;-72
2023/01/29 02:18:53;;;;;;;6.19;5.55;;;;;;;1.35;69.25;100790.05;450983;117;922653;-71
2023/01/29 02:20:07;;;;;;;5.92;5.46;;;;;;;1.35;69.11;100788.22;451048;114;922768;-70
2023/01/29 02:21:24;;;;;;;6.45;5.82;;;;;;;1.35;69.11;100780.16;447672;116;922530;-70
2023/01/29 02:22:54;;;;;;;7.06;4.89;;;;;;;1.37;69.18;100783.55;453667;116;922553;-70
2023/01/29 02:24:31;;;;;;;5.31;4.91;;;;;;;1.38;69.08;100779.84;457120;116;922553;-71
2023/01/29 02:26:06;;;;;;;7.84;5.37;;;;;;;1.38;69.10;100779.02;432494;121;923299;-71
2023/01/29 02:27:15;;;;;;;6.06;5.42;;;;;;;1.39;69.33;100778.00;463559;114;922628;-70
2023/01/29 02:28:40;;;;;;;5.78;5.25;;;;;;;1.39;69.28;100775.31;459712;114;922433;-71
2023/01/29 02:29:56;;;;;;;5.57;5.07;;;;;;;1.39;69.31;100772.63;457532;112;922730;-69
2023/01/29 02:31:18;;;;;;;6.57;5.98;;;;;;;1.40;69.26;100779.70;463005;114;922559;-70
2023/01/29 02:32:27;;;;;;;6.09;5.57;;;;;;;1.38;69.12;100774.47;462330;114;922475;-70
2023/01/29 02:33:46;;;;;;;6.49;5.97;;;;;;;1.37;69.20;100780.86;462615;114;922795;-71
2023/01/29 02:36:38;;;;;;;5.46;4.97;;;;;;;1.36;69.15;100770.26;458745;115;922916;-70
2023/01/29 02:38:05;;;;;;;5.88;5.33;;;;;;;1.36;69.35;100771.11;435809;120;923190;-70
2023/01/29 02:39:34;;;;;;;5.36;4.96;;;;;;;1.36;69.29;100770.26;463203;114;922537;-71
2023/01/29 02:40:50;;;;;;;6.34;5.76;;;;;;;1.35;69.42;100761.35;457390;114;922537;-71
2023/01/29 02:42:08;;;;;;;6.68;5.57;;;;;;;1.35;69.45;100768.56;457284;116;922989;-71
2023/01/29 02:43:29;;;;;;;6.73;6.07;;;;;;;1.33;69.68;100771.39;462643;113;922490;-70
2023/01/29 02:44:57;;;;;;;6.24;5.19;;;;;;;1.33;69.56;100767.86;462460;114;922559;-69
2023/01/29 02:46:22;;;;;;;6.36;5.82;;;;;;;1.33;69.68;100771.39;458866;113;922491;-69
2023/01/29 02:47:29;;;;;;;6.42;5.92;;;;;;;1.34;69.75;100770.40;458732;114;922890;-71
2023/01/29 02:48:41;;;;;;;5.75;5.26;;;;;;;1.36;69.86;100764.88;464491;114;922655;-71
2023/01/29 02:50:20;;;;;;;6.74;6.14;;;;;;;1.36;69.80;100765.73;464747;112;922617;-71
2023/01/29 02:51:30;;;;;;;6.03;5.55;;;;;;;1.38;69.84;100760.22;464815;114;922535;-71
2023/01/29 02:52:36;;;;;;;6.16;5.72;;;;;;;1.37;69.65;100762.06;462075;114;922567;-71
2023/01/29 02:53:49;;;;;;;5.76;5.30;;;;;;;1.36;69.80;100752.30;462956;114;922981;-71
2023/01/29 02:55:03;;;;;;;6.01;5.48;;;;;;;1.36;69.73;100760.36;465207;112;922436;-70
2023/01/29 02:56:11;;;;;;;6.26;5.47;;;;;;;1.37;69.81;100761.20;463218;114;922469;-70
2023/01/29 02:57:19;;;;;;;6.24;5.75;;;;;;;1.38;69.82;100762.91;463633;114;923086;-70
2023/01/29 02:58:28;;;;;;;5.84;5.34;;;;;;;1.38;69.89;100755.66;463032;112;922515;-70
2023/01/29 02:59:38;;;;;;;6.59;6.09;;;;;;;1.39;69.76;100759.20;462785;112;922639;-70
2023/01/29 03:00:44;;;;;;;6.87;5.44;;;;;;;1.38;69.87;100755.66;457328;114;922515;-71
2023/01/29 03:01:51;;;;;;;5.98;5.47;;;;;;;1.39;69.67;100756.51;458435;114;922581;-72
2023/01/29 03:03:06;;;;;;;5.97;5.36;;;;;;;1.36;69.67;100764.88;460889;112;923470;-71
2023/01/29 03:04:18;;;;;;;5.84;5.33;;;;;;;1.36;69.76;100765.73;462893;114;922466;-71
2023/01/29 03:05:33;;;;;;;5.42;5.02;;;;;;;1.35;69.83;100758.66;463042;114;922493;-70
2023/01/29 03:06:40;;;;;;;5.57;5.17;;;;;;;1.36;69.93;100754.14;463737;113;923193;-70
2023/01/29 03:07:46;;;;;;;6.21;5.67;;;;;;;1.33;69.81;100760.64;457181;116;922484;-70
2023/01/29 03:08:55;;;;;;;11.74;6.67;;;;;;;1.29;69.86;100751.20;462214;112;922851;-70
2023/01/29 03:10:00;;;;;;;9.37;8.57;;;;;;;1.27;70.04;100760.43;463613;112;922843;-70
2023/01/29 03:11:06;;;;;;;10.37;9.37;;;;;;;1.25;70.08;100758.73;464860;114;923150;-71
2023/01/29 03:12:27;;;;;;;15.27;13.94;;;;;;;1.24;70.24;100754.34;465384;114;922560;-71
2023/01/29 03:13:31;;;;;;;16.58;14.96;;;;;;;1.24;70.17;100762.41;450209;116;922607;-71
2023/01/29 03:16:34;;;;;;;16.91;15.38;;;;;;;1.21;70.31;100760.00;458208;115;922919;-71
2023/01/29 03:17:50;;;;;;;18.86;17.07;;;;;;;1.22;70.34;100760.85;462183;114;922556;-70
2023/01/29 03:18:57;;;;;;;18.95;17.22;;;;;;;1.21;70.44;100762.69;453059;114;922502;-70
2023/01/29 03:20:02;;;;;;;17.08;15.70;;;;;;;1.20;70.44;100750.28;449181;114;922684;-71
2023/01/29 03:21:49;;;;;;;18.13;16.28;;;;;;;1.17;70.43;100755.94;450331;116;922569;-71
2023/01/29 03:22:15;;;;;;;15.48;14.24;;;;;;;1.17;70.44;100757.78;454270;116;922997;-71
2023/01/29 03:23:26;;;;;;;13.67;12.64;;;;;;;1.18;70.38;100762.16;456307;116;922568;-71
2023/01/29 03:33:01;;;;;;;6.59;5.86;;;;;;;1.12;70.75;100766.28;457440;116;922841;-70
2023/01/29 03:34:23;;;;;;;7.24;6.63;;;;;;;1.14;70.78;100769.68;457289;116;922551;-70
2023/01/29 03:35:35;;;;;;;6.65;6.13;;;;;;;1.15;70.68;100765.16;451417;116;923464;-72
2023/01/29 03:37:00;;;;;;;6.58;6.02;;;;;;;1.17;70.83;100765.83;450267;116;922932;-70
2023/01/29 03:38:12;;;;;;;6.93;6.29;;;;;;;1.19;70.73;100761.17;455106;116;922493;-71
2023/01/29 03:39:14;;;;;;;6.58;6.08;;;;;;;1.22;70.63;100766.23;455749;116;922557;-71
2023/01/29 03:40:18;;;;;;;6.77;6.16;;;;;;;1.21;70.56;100762.69;451263;116;922926;-71
2023/01/29 03:41:34;;;;;;;6.24;5.74;;;;;;;1.22;70.40;100772.44;454717;116;922482;-70
2023/01/29 03:42:41;;;;;;;7.20;6.60;;;;;;;1.24;70.44;100764.25;456319;116;922535;-71
2023/01/29 03:43:54;;;;;;;6.61;6.11;;;;;;;1.25;70.35;100763.25;449400;118;922488;-72
2023/01/29 03:45:04;;;;;;;6.79;6.29;;;;;;;1.29;70.32;100766.48;451888;115;922918;-72
2023/01/29 03:46:30;;;;;;;6.43;5.88;;;;;;;1.29;70.33;100763.78;449577;118;922611;-71
2023/01/29 03:47:51;;;;;;;6.79;6.18;;;;;;;1.31;70.35;100761.81;449565;118;922488;-70
2023/01/29 03:49:01;;;;;;;6.67;6.08;;;;;;;1.33;70.31;100759.80;449598;117;923067;-70
2023/01/29 03:50:27;;;;;;;6.30;5.84;;;;;;;1.34;70.31;100759.66;449435;114;922675;-70
2023/01/29 03:51:58;;;;;;;6.61;6.07;;;;;;;1.37;70.36;100755.84;449542;118;922476;-72
2023/01/29 03:53:23;;;;;;;6.67;5.73;;;;;;;1.37;70.27;100759.37;449736;118;922884;-70
2023/01/29 03:54:48;;;;;;;6.03;5.40;;;;;;;1.38;70.31;100752.16;431014;119;923255;-69
2023/01/29 03:56:23;;;;;;;6.52;6.02;;;;;;;1.50;70.42;100757.14;474136;110;946902;-70
2023/01/29 03:57:36;;;;;;;6.44;5.82;;;;;;;1.39;70.39;100759.20;456919;114;922715;-72
2023/01/29 03:58:48;;;;;;;7.33;6.75;;;;;;;1.38;70.38;100752.16;452987;116;922706;-71
2023/01/29 04:00:08;;;;;;;6.58;5.98;;;;;;;1.35;70.41;100753.30;454785;115;922647;-72
2023/01/29 04:01:36;;;;;;;6.01;5.51;;;;;;;1.32;70.31;100750.92;461699;115;922553;-71
2023/01/29 04:03:13;;;;;;;6.16;5.59;;;;;;;1.30;70.58;100752.91;460956;115;922602;-71
2023/01/29 04:04:22;;;;;;;6.57;6.01;;;;;;;1.28;70.55;100746.83;461679;115;923183;-71
2023/01/29 04:05:29;;;;;;;6.36;5.78;;;;;;;1.25;70.59;100739.08;464661;114;923418;-70
2023/01/29 04:06:50;;;;;;;6.66;6.12;;;;;;;1.24;70.72;100751.66;464539;114;923100;-71
2023/01/29 04:07:57;;;;;;;5.75;5.31;;;;;;;1.23;70.53;100749.97;465395;114;930458;-71
2023/01/29 04:09:15;;;;;;;6.61;6.04;;;;;;;1.21;70.66;100751.95;465460;114;923221;-71
2023/01/29 04:10:22;;;;;;;6.78;6.01;;;;;;;1.23;70.67;100755.34;462069;114;922445;-70
2023/01/29 04:11:28;;;;;;;6.13;5.61;;;;;;;1.23;70.66;100744.59;457425;116;922914;-70
2023/01/29 04:13:51;;;;;;;7.37;6.27;;;;;;;1.36;70.71;100749.62;470575;110;947415;-70
2023/01/29 04:14:57;;;;;;;8.08;7.35;;;;;;;1.26;70.73;100751.52;457239;115;922661;-70
2023/01/29 04:16:04;;;;;;;10.12;9.23;;;;;;;1.28;70.76;100754.03;456038;114;923080;-71
2023/01/29 04:17:19;;;;;;;13.76;12.30;;;;;;;1.30;70.77;100744.00;455763;115;922674;-71
2023/01/29 04:18:24;;;;;;;14.18;13.06;;;;;;;1.32;70.75;100752.77;454046;114;922480;-70
2023/01/29 04:19:39;;;;;;;16.04;14.64;;;;;;;1.33;70.71;100746.37;456915;114;922606;-70
2023/01/29 04:20:43;;;;;;;16.46;14.86;;;;;;;1.34;70.64;100748.91;458194;115;922603;-70
2023/01/29 04:21:49;;;;;;;15.28;13.97;;;;;;;1.34;70.57;100746.22;459011;115;922522;-70
2023/01/29 04:22:52;;;;;;;14.94;13.59;;;;;;;1.36;70.56;100749.62;458864;115;922541;-70
2023/01/29 04:23:56;;;;;;;15.70;14.31;;;;;;;1.36;70.55;100748.77;459076;115;922616;-71
2023/01/29 04:25:07;;;;;;;14.56;13.35;;;;;;;1.35;70.75;100752.44;457490;114;922486;-71
2023/01/29 04:26:41;;;;;;;14.18;12.91;;;;;;;1.34;70.68;100753.44;453591;116;922608;-71
2023/01/29 04:28:05;;;;;;;12.24;11.15;;;;;;;1.33;70.88;100754.42;455301;116;922757;-69
2023/01/29 04:29:16;;;;;;;11.34;10.44;;;;;;;1.30;70.90;100750.22;446419;117;922605;-70
2023/01/29 04:30:26;;;;;;;10.56;9.76;;;;;;;1.27;71.18;100742.45;426471;122;922815;-70
2023/01/29 04:31:48;;;;;;;10.21;9.30;;;;;;;1.37;71.34;100755.84;474344;110;947535;-71
2023/01/29 04:33:11;;;;;;;8.81;8.11;;;;;;;1.37;71.42;100747.78;488337;107;922441;-71
2023/01/29 04:34:27;;;;;;;7.79;7.22;;;;;;;1.25;71.35;100747.98;470993;112;922528;-70
2023/01/29 04:35:34;;;;;;;7.93;7.33;;;;;;;1.23;71.37;100744.59;467870;111;922978;-71
2023/01/29 04:36:47;;;;;;;8.37;7.39;;;;;;;1.23;71.55;100744.59;471769;110;922393;-71
2023/01/29 04:38:02;;;;;;;7.48;6.79;;;;;;;1.23;71.59;100744.59;470459;111;922498;-72
2023/01/29 04:39:12;;;;;;;7.73;7.08;;;;;;;1.23;71.59;100744.59;469888;113;922542;-71
2023/01/29 04:40:18;;;;;;;7.24;6.71;;;;;;;1.25;71.68;100736.39;470715;111;922526;-70
2023/01/29 04:41:34;;;;;;;6.23;5.73;;;;;;;1.26;71.74;100735.41;469198;111;922376;-69
2023/01/29 04:43:05;;;;;;;7.47;6.87;;;;;;;1.28;71.82;100740.61;472471;112;922627;-69
2023/01/29 04:44:22;;;;;;;;;;;;;;;1.29;71.88;100734.24;475649;112;922105;-69
2023/01/29 04:45:51;;;;;;;6.74;6.15;;;;;;;1.30;71.78;100730.56;470885;111;922178;-70
2023/01/29 04:46:58;;;;;;;7.53;6.81;;;;;;;1.27;71.84;100736.25;470937;110;922502;-70
2023/01/29 04:48:11;;;;;;;7.01;6.41;;;;;;;1.23;71.90;100733.85;471729;112;922466;-70
2023/01/29 04:49:39;;;;;;;7.33;6.67;;;;;;;1.22;72.04;100737.53;472028;112;922496;-70
2023/01/29 04:50:57;;;;;;;7.38;6.67;;;;;;;1.22;72.09;100732.16;470023;111;922850;-70
2023/01/29 04:52:07;;;;;;;7.06;6.52;;;;;;;1.23;72.21;100738.37;469059;112;922541;-72
2023/01/29 04:53:14;;;;;;;8.10;7.32;;;;;;;1.22;72.22;100736.69;467279;113;922547;-71
2023/01/29 04:54:37;;;;;;;8.73;7.92;;;;;;;1.22;72.13;100734.84;466942;113;922559;-70
2023/01/29 04:55:52;;;;;;;9.13;8.36;;;;;;;1.23;72.13;100733.01;469873;111;922668;-71
2023/01/29 04:57:05;;;;;;;13.28;11.67;;;;;;;1.22;72.08;100734.84;473376;111;922892;-71
2023/01/29 04:58:36;;;;;;;12.72;11.43;;;;;;;1.19;72.16;100731.63;473711;112;922622;-70
2023/01/29 04:59:48;;;;;;;14.18;12.72;;;;;;;1.17;72.18;100739.83;474281;111;922569;-71
2023/01/29 05:00:53;;;;;;;13.59;12.21;;;;;;;1.17;72.24;100731.77;474993;111;922436;-70
2023/01/29 05:02:05;;;;;;;15.18;13.61;;;;;;;1.18;72.39;100730.78;474520;111;922838;-71
2023/01/29 05:03:08;;;;;;;12.59;11.48;;;;;;;1.20;72.50;100744.06;471317;112;922492;-71
2023/01/29 05:04:14;;;;;;;13.06;11.78;;;;;;;1.20;72.50;100742.23;472091;112;922517;-70
2023/01/29 05:05:19;;;;;;;12.83;11.62;;;;;;;1.20;72.33;100736.01;473037;111;923151;-71
2023/01/29 05:06:24;;;;;;;12.63;11.45;;;;;;;1.20;72.24;100739.55;471990;111;922449;-71
2023/01/29 05:07:29;;;;;;;11.01;10.10;;;;;;;1.20;72.42;100738.70;473390;111;922484;-71
2023/01/29 05:08:34;;;;;;;11.41;10.46;;;;;;;1.20;72.50;100739.55;473079;111;923175;-70
2023/01/29 05:09:38;;;;;;;10.78;9.85;;;;;;;1.22;72.55;100736.69;472842;111;922487;-70
2023/01/29 05:10:42;;;;;;;10.71;9.71;;;;;;;1.21;72.55;100743.89;468875;112;922862;-70
2023/01/29 05:11:48;;;;;;;11.22;10.27;;;;;;;1.22;72.56;100742.05;470150;113;922646;-70
2023/01/29 05:12:55;;;;;;;10.23;9.36;;;;;;;1.22;72.62;100742.05;474411;110;922519;-71
2023/01/29 05:14:00;;;;;;;9.58;8.81;;;;;;;1.21;72.58;100741.20;473950;111;922459;-70
2023/01/29 05:15:07;;;;;;;9.51;8.70;;;;;;;1.23;72.79;100743.75;471267;111;922473;-70
2023/01/29 05:16:24;;;;;;;10.10;9.30;;;;;;;1.24;72.80;100740.92;474636;111;922621;-69
2023/01/29 05:17:25;;;;;;;10.32;8.94;;;;;;;1.27;72.85;100745.13;467456;112;922628;-71
2023/01/29 05:18:30;;;;;;;11.67;10.47;;;;;;;1.29;72.86;100742.30;471601;112;922510;-71
2023/01/29 05:19:33;;;;;;;11.35;10.29;;;;;;;1.30;72.88;100746.68;471437;111;930093;-70
2023/01/29 05:20:39;;;;;;;10.73;9.75;;;;;;;1.31;72.80;100746.54;475680;111;922576;-71
2023/01/29 05:21:45;;;;;;;11.72;10.52;;;;;;;1.32;72.87;100742.86;475998;111;922797;-69
2023/01/29 05:22:48;;;;;;;13.81;12.16;;;;;;;1.33;72.80;100744.53;474038;110;922895;-70
2023/01/29 05:24:12;;;;;;;13.26;11.68;;;;;;;1.34;72.69;100740.00;473256;112;922470;-72
2023/01/29 05:25:25;;;;;;;9.79;8.96;;;;;;;1.36;72.77;100746.08;473925;111;922590;-70
2023/01/29 05:28:03;;;;;;;10.64;9.64;;;;;;;1.37;72.47;100750.46;471007;111;922676;-70
2023/01/29 05:29:07;;;;;;;11.02;9.02;;;;;;;1.35;72.38;100744.38;470456;112;922512;-71
2023/01/29 05:30:10;;;;;;;9.86;8.98;;;;;;;1.34;72.37;100743.53;471187;111;922514;-73
2023/01/29 05:31:14;;;;;;;10.29;9.43;;;;;;;1.34;72.27;100745.37;467087;113;922619;-70
2023/01/29 05:32:17;;;;;;;9.94;9.08;;;;;;;1.33;72.25;100749.05;466982;113;930401;-71
2023/01/29 05:33:26;;;;;;;9.91;9.03;;;;;;;1.30;72.02;100739.47;469361;110;931132;-72
2023/01/29 05:34:30;;;;;;;10.82;9.84;;;;;;;1.29;71.95;100755.73;467137;111;922547;-73
2023/01/29 05:35:33;;;;;;;9.58;8.75;;;;;;;1.26;71.89;100751.52;467818;111;922784;-72
2023/01/29 05:36:36;;;;;;;9.48;8.68;;;;;;;1.23;71.89;100747.28;468876;111;922823;-72
2023/01/29 05:37:39;;;;;;;9.26;8.50;;;;;;;1.21;71.73;100751.13;470072;113;930593;-70
2023/01/29 05:38:43;;;;;;;8.49;7.79;;;;;;;1.18;71.85;100752.27;473077;112;922540;-70
2023/01/29 05:39:46;;;;;;;8.71;8.00;;;;;;;1.18;72.12;100754.95;471997;111;922397;-71
2023/01/29 05:40:49;;;;;;;8.18;7.50;;;;;;;1.20;72.01;100754.81;474108;112;922506;-72
2023/01/29 05:41:53;;;;;;;8.29;7.51;;;;;;;1.19;72.10;100755.80;473712;111;922457;-71
2023/01/29 05:42:56;;;;;;;7.87;7.27;;;;;;;1.19;72.24;100755.80;467062;113;930628;-71
2023/01/29 05:43:59;;;;;;;7.86;7.21;;;;;;;1.21;72.43;100751.95;472020;110;922498;-70
2023/01/29 05:45:03;;;;;;;7.87;7.20;;;;;;;1.22;72.42;100755.48;467639;111;922482;-71
2023/01/29 05:46:06;;;;;;;8.79;7.99;;;;;;;1.24;72.41;100758.87;472617;112;922754;-71
2023/01/29 05:47:09;;;;;;;8.23;7.60;;;;;;;1.24;72.54;100754.34;474034;112;922477;-70
2023/01/29 05:48:12;;;;;;;8.38;7.68;;;;;;;1.25;72.44;100756.05;474004;112;922504;-71
2023/01/29 05:49:17;;;;;;;8.51;7.55;;;;;;;1.26;72.60;100754.20;467042;113;922607;-71